x

St. Augustine, Fl (sauf1) Weather Station

7:00am - Fri 26th May 2017 All times are EDT. -4 hours from GMT.

  • Wind
    8mph, 10mph gusts
  • Sea Temp 74°f
  • Air Temp 64°f
  • Sea Pressure 1017.9mb
  • St. Augustine, Fl
  • St. Augustine, Fl

More Historic Weather Station data

Upgrade to MSW Pro to gain access to the past 30 days of data for over 8000 Wavebouys and Weather Stations around the globe.

Join Pro

Comparision Forecast

View Surf forecast
   
Fri 05/26 7:00am 8 10 mph 1017.9mb 74f 64f
6:00am 8 9 mph 1017mb 74f 63f
5:00am 8 9 mph 1016.5mb 75f 64f
4:00am 7 8 mph 1015.8mb 75f 64f
3:00am 6 7 mph 1015.5mb 75f 66f
2:00am 8 10 mph 1015.6mb 75f 66f
1:00am 8 9 mph 1015.7mb 76f 68f
12:00am 8 10 mph 1015.4mb 76f 69f
Thu 05/25 11:00pm 6 8 mph 1014.9mb 76f 71f
10:00pm 6 7 mph 1013.8mb 76f 73f
9:00pm 6 7 mph 1013mb 76f 75f
8:00pm 7 8 mph 1012mb 76f 79f
7:00pm 14 16 mph 1011.1mb 77f 82f
6:00pm 11 15 mph 1010.9mb 77f 82f
5:00pm 8 11 mph 1010.7mb 78f 82f
4:00pm 10 14 mph 1010.7mb 78f 79f
3:00pm 13 18 mph 1011mb 78f 78f
2:00pm 14 20 mph 1011mb 77f 78f
1:00pm 17 23 mph 1011.5mb 76f 76f
12:00pm 14 16 mph 1011.6mb 76f 75f
11:00am 15 22 mph 1011.4mb 76f 74f
10:00am 13 17 mph 1010.8mb 76f 72f
9:00am 9 13 mph 1010.1mb 76f 73f
8:00am 7 10 mph 1009.5mb 76f 72f
7:00am 5 6 mph 1008.9mb 76f 69f
6:00am 3 6 mph 1008.1mb 76f 69f
5:00am 6 8 mph 1007.8mb 76f 70f
4:00am 6 8 mph 1007.2mb 76f 70f
3:00am 8 9 mph 1006.6mb 76f 71f
2:00am 7 11 mph 1006.7mb 76f 71f
1:00am 7 10 mph 1006.8mb 76f 72f
12:00am 8 9 mph 1006.6mb 77f 72f
Wed 05/24 11:00pm 14 18 mph 1006.2mb 77f 72f
10:00pm 10 14 mph 1005.2mb 77f 73f
9:00pm 15 18 mph 1004.4mb 77f 73f
8:00pm 13 16 mph 1004.2mb 77f 73f
7:00pm 11 14 mph 1003.9mb 77f 73f
6:00pm 10 13 mph 1004.2mb 77f 73f
5:00pm 11 17 mph 1005.7mb 78f 73f
4:00pm 11 17 mph 1006.2mb 78f 76f
3:00pm 8 10 mph 1005.9mb 78f 76f
2:00pm 15 17 mph 1006mb 77f 76f
1:00pm 10 15 mph 1006.3mb 77f 81f
12:00pm 11 14 mph 1006.8mb 77f 80f
11:00am 3 5 mph 1007.3mb 77f 76f
10:00am 7 8 mph 1007.4mb 77f 74f
9:00am 14 16 mph 1007.9mb 77f 74f
8:00am 5 5 mph 1008.1mb 77f 72f
7:00am 7 9 mph 1009.6mb 78f 71f
6:00am 7 8 mph 1008.6mb 78f 74f
5:00am 3 3 mph 1009mb 78f 74f
4:00am 2 3 mph 1009.1mb 78f 74f
3:00am 2 3 mph 1008.6mb 78f 74f
2:00am 8 10 mph 1009.9mb 78f 75f
1:00am 13 17 mph 1009.7mb 78f 79f
12:00am 8 9 mph 1010mb 78f 80f
Tue 05/23 11:00pm 10 14 mph 1010.5mb 79f 80f
10:00pm 10 13 mph 1010.1mb 78f 81f
9:00pm 14 18 mph 1010mb 78f 82f
8:00pm 10 15 mph 1009.6mb 78f 83f
7:00pm 11 14 mph 1009.3mb 79f 84f
6:00pm 9 14 mph 1009.5mb 79f 86f
5:00pm 16 23 mph 1009.3mb 80f 86f
4:00pm 16 22 mph 1009.2mb 80f 87f
3:00pm 20 24 mph 1010mb 80f 86f
2:00pm 21 23 mph 1010.7mb 80f 85f
1:00pm 21 23 mph 1011.6mb 79f 83f
12:00pm 15 21 mph 1012.8mb 79f 82f
11:00am 18 21 mph 1013.5mb 78f 81f
10:00am 9 14 mph 1014mb 78f 80f
9:00am 10 14 mph 1014.6mb 78f 77f
8:00am 8 10 mph 1014.3mb 78f 73f
7:00am 6 7 mph 1013.8mb 78f 72f
6:00am 7 10 mph 1013.4mb 78f 71f
5:00am 8 9 mph 1013.3mb 79f 71f
4:00am 8 10 mph 1013.7mb 79f 72f
3:00am 9 11 mph 1014.2mb 79f 72f
2:00am 9 11 mph 1015mb 79f 72f
1:00am 9 11 mph 1015.6mb 79f 73f
12:00am 14 16 mph 1016mb 80f 75f
Mon 05/22 11:00pm 15 17 mph 1016mb 80f 76f
10:00pm 17 20 mph 1016.3mb 81f 76f
9:00pm 14 15 mph 1016.2mb 81f 75f
8:00pm 16 17 mph 1016.5mb 81f 76f
7:00pm 6 7 mph 1016.7mb 81f 76f
6:00pm 11 14 mph 1015.3mb 81f 78f
5:00pm 20 23 mph 1015mb 82f 78f
4:00pm 23 25 mph 1015.3mb 82f 78f
3:00pm 21 22 mph 1016.2mb 81f 78f
2:00pm 15 17 mph 1017mb 81f 78f
1:00pm 14 14 mph 1018mb 81f 78f